Tyler — WDH2928 — position and weather

sailwx.info

Track history (hours):
 
Tides and Currents Weather Stations Pressure Air Temp Water Temp Dewpoint Dewpoint Depression Visibility Wind Speed Wind Dir Waves Ship Positions

Tyler

Owner: F/V Tyler Inc, Gloucester, MA. More information available from US FCC via Universal Licensing System and Coast Guard Vessel Documentation Center.

Last reported at 2018-Feb-23 13:00 UTC. Time now 2018-Feb-23 13:02 UTC.
Position N 42°37' W 070°40'.

Length 20 m; draft 14 m.

Type: Ship. MMSI: 367602610.

Date/timePositionNaut miles runAvg speedWind from/ knotsBaromVisibWave heightAir tempDewpointWater temp
2018-Feb-23 13:00N 42°37' W 070°40'0 0.0
2018-Feb-23 12:30N 42°37' W 070°40'0 0.0
2018-Feb-23 12:00N 42°37' W 070°40'0 0.0
2018-Feb-23 11:30N 42°37' W 070°40'0 0.0
2018-Feb-23 11:00N 42°37' W 070°40'0 0.0
2018-Feb-23 10:30N 42°37' W 070°40'0 0.0
2018-Feb-23 10:00N 42°37' W 070°40'0 0.0
2018-Feb-23 09:30N 42°37' W 070°40'0 0.0
2018-Feb-23 09:00N 42°37' W 070°40'0 0.0
2018-Feb-23 08:30N 42°37' W 070°40'0 0.0
2018-Feb-23 08:00N 42°37' W 070°40'0 0.0
2018-Feb-23 07:30N 42°37' W 070°40'0 0.9
2018-Feb-23 07:00N 42°37' W 070°39'0 0.0
2018-Feb-23 06:30N 42°37' W 070°39'0 0.0
2018-Feb-23 06:00N 42°37' W 070°39'0 0.0
2018-Feb-23 05:30N 42°37' W 070°39'0 0.0
2018-Feb-23 05:01N 42°37' W 070°39'0 0.0
2018-Feb-23 04:30N 42°37' W 070°39'0 0.0
2018-Feb-23 04:00N 42°37' W 070°39'0 0.0
2018-Feb-23 03:30N 42°37' W 070°39'0 0.0
2018-Feb-23 03:01N 42°37' W 070°39'0 0.0
2018-Feb-23 02:29N 42°37' W 070°39'0 0.0
2018-Feb-23 01:59N 42°37' W 070°39'0 0.0
2018-Feb-23 01:30N 42°37' W 070°39'0 0.0
2018-Feb-23 01:00N 42°37' W 070°39'0 0.0
2018-Feb-23 00:30N 42°37' W 070°39'0 0.0
2018-Feb-23 00:00N 42°37' W 070°39'0 0.0
2018-Feb-22 23:30N 42°37' W 070°39'0 0.0
2018-Feb-22 23:00N 42°37' W 070°39'0 0.0
2018-Feb-22 22:30N 42°37' W 070°39'0 0.0
2018-Feb-22 22:00N 42°37' W 070°39'0 0.0
2018-Feb-22 21:30N 42°37' W 070°39'0 0.0
2018-Feb-22 21:00N 42°37' W 070°39'0 0.0
2018-Feb-22 20:30N 42°37' W 070°39'0 0.0
2018-Feb-22 20:01N 42°37' W 070°39'0 0.0
2018-Feb-22 19:30N 42°37' W 070°39'0 0.0
2018-Feb-22 19:00N 42°37' W 070°39'0 0.0
2018-Feb-22 18:30N 42°37' W 070°39'0 0.0
2018-Feb-22 18:00N 42°37' W 070°39'0 0.0
2018-Feb-22 17:30N 42°37' W 070°39'0 0.0
2018-Feb-22 16:59N 42°37' W 070°39'0 0.0
2018-Feb-22 16:30N 42°37' W 070°39'0 0.0
2018-Feb-22 15:59N 42°37' W 070°39'0 0.0
2018-Feb-22 15:29N 42°37' W 070°39'0 0.0
2018-Feb-22 15:00N 42°37' W 070°39'0 0.0
2018-Feb-22 14:30N 42°37' W 070°39'0 0.0
2018-Feb-22 14:00N 42°37' W 070°39'0 0.0
2018-Feb-22 13:30N 42°37' W 070°39'0 0.2
2018-Feb-22 13:00N 42°37' W 070°39'1 2.1
2018-Feb-22 12:31N 42°36' W 070°40'2 4.5
2018-Feb-22 12:01N 42°34' W 070°39'4 8.4
2018-Feb-22 11:30N 42°35' W 070°33'4 8.0
2018-Feb-22 11:00N 42°35' W 070°28'4 8.0
2018-Feb-22 10:30N 42°36' W 070°22'4 7.8
2018-Feb-22 10:00N 42°36' W 070°17'  
2018-Feb-19 05:42N 42°24' W 070°14'2 8.6
2018-Feb-19 05:28N 42°25' W 070°16'4 8.9
2018-Feb-19 05:01N 42°27' W 070°21'4 8.9
2018-Feb-19 04:31N 42°29' W 070°26'4 8.5
2018-Feb-19 04:00N 42°31' W 070°32'4 8.4
2018-Feb-19 03:30N 42°33' W 070°37'4 7.6
2018-Feb-19 03:00N 42°35' W 070°41'2 3.7
2018-Feb-19 02:30N 42°37' W 070°39'0 0.0
2018-Feb-19 02:01N 42°37' W 070°39'0 0.0
2018-Feb-19 01:30N 42°37' W 070°39'0 0.0
2018-Feb-19 01:00N 42°37' W 070°39'0 0.0
2018-Feb-19 00:30N 42°37' W 070°39'0 0.0
2018-Feb-19 00:00N 42°37' W 070°39'0 0.0
2018-Feb-18 23:31N 42°37' W 070°39'0 0.0
2018-Feb-18 23:00N 42°37' W 070°39'0 0.0
2018-Feb-18 22:31N 42°37' W 070°39'0 0.0
2018-Feb-18 22:00N 42°37' W 070°39'0 0.0
2018-Feb-18 21:30N 42°37' W 070°39'0 0.0
2018-Feb-18 21:00N 42°37' W 070°39'0 0.0
2018-Feb-18 20:30N 42°37' W 070°39'0 0.0
2018-Feb-18 20:01N 42°37' W 070°39'0 0.0
2018-Feb-18 19:31N 42°37' W 070°39'0 0.9
2018-Feb-18 19:00N 42°37' W 070°40'0 0.0
2018-Feb-18 18:30N 42°37' W 070°40'0 0.0
2018-Feb-18 18:00N 42°37' W 070°40'0 0.5
2018-Feb-18 17:30N 42°36' W 070°40'1 1.3
2018-Feb-18 17:00N 42°37' W 070°39'0 0.0
2018-Feb-18 16:30N 42°37' W 070°39'0 0.0
2018-Feb-18 16:00N 42°37' W 070°39'0 0.0
2018-Feb-18 15:30N 42°37' W 070°39'0 0.0
2018-Feb-18 15:00N 42°37' W 070°39'0 0.0
2018-Feb-18 14:31N 42°37' W 070°39'0 0.0
2018-Feb-18 14:01N 42°37' W 070°39'0 0.0
2018-Feb-18 13:31N 42°37' W 070°39'0 0.0
2018-Feb-18 13:00N 42°37' W 070°39'0 0.0
2018-Feb-18 12:31N 42°37' W 070°39'0 0.0
2018-Feb-18 12:01N 42°37' W 070°39'0 0.0
2018-Feb-18 11:31N 42°37' W 070°39'0 0.0
2018-Feb-18 11:00N 42°37' W 070°39'0 0.0
2018-Feb-18 10:31N 42°37' W 070°39'0 0.0
2018-Feb-18 10:01N 42°37' W 070°39'0 0.0
2018-Feb-18 09:30N 42°37' W 070°39'0 0.0
2018-Feb-18 09:00N 42°37' W 070°39'0 0.0
2018-Feb-18 08:30N 42°37' W 070°39'0 0.0
2018-Feb-18 08:01N 42°37' W 070°39'0 0.0
2018-Feb-18 07:30N 42°37' W 070°39'0 0.0
2018-Feb-18 07:00N 42°37' W 070°39'0 0.0
2018-Feb-18 06:31N 42°37' W 070°39'0 0.0
2018-Feb-18 06:00N 42°37' W 070°39'0 0.0
2018-Feb-18 05:30N 42°37' W 070°39'0 0.0
2018-Feb-18 05:00N 42°37' W 070°39'0 0.0
2018-Feb-18 04:30N 42°37' W 070°39'0 0.0
2018-Feb-18 04:00N 42°37' W 070°39'0 0.0
2018-Feb-18 03:30N 42°37' W 070°39'0 0.0
2018-Feb-18 03:00N 42°37' W 070°39'0 0.0
2018-Feb-18 02:30N 42°37' W 070°39'0 0.0
2018-Feb-18 02:01N 42°37' W 070°39'0 0.0
2018-Feb-18 01:31N 42°37' W 070°39'0 0.0
2018-Feb-18 01:00N 42°37' W 070°39'0 0.0
2018-Feb-18 00:30N 42°37' W 070°39'0 0.0
2018-Feb-18 00:01N 42°37' W 070°39'0 0.0
2018-Feb-17 23:30N 42°37' W 070°39'0 0.0
2018-Feb-17 23:01N 42°37' W 070°39'0 0.0
2018-Feb-17 22:30N 42°37' W 070°39'0 0.0
2018-Feb-17 22:00N 42°37' W 070°39'0 0.0
2018-Feb-17 21:30N 42°37' W 070°39'0 0.0
2018-Feb-17 21:00N 42°37' W 070°39'0 0.0
2018-Feb-17 20:31N 42°37' W 070°39'0 0.0
2018-Feb-17 20:00N 42°37' W 070°39'0 0.0
2018-Feb-17 19:31N 42°37' W 070°39'0 0.0
2018-Feb-17 19:00N 42°37' W 070°39'0 0.0
2018-Feb-17 18:30N 42°37' W 070°39'0 0.0
2018-Feb-17 18:00N 42°37' W 070°39'0 0.0
2018-Feb-17 17:31N 42°37' W 070°39'0 0.0
2018-Feb-17 17:00N 42°37' W 070°39'0 0.0
2018-Feb-17 16:30N 42°37' W 070°39'0 0.0
2018-Feb-17 16:00N 42°37' W 070°39'0 0.0
2018-Feb-17 15:30N 42°37' W 070°39'0 0.0
2018-Feb-17 15:00N 42°37' W 070°39'0 0.0
2018-Feb-17 14:31N 42°37' W 070°39'0 0.0
2018-Feb-17 14:00N 42°37' W 070°39'0 0.0
2018-Feb-17 13:30N 42°37' W 070°39'0 0.0
2018-Feb-17 13:01N 42°37' W 070°39'0 0.0
2018-Feb-17 12:31N 42°37' W 070°39'0 0.0
2018-Feb-17 12:01N 42°37' W 070°39'0 0.0
2018-Feb-17 11:30N 42°37' W 070°39'0 0.0
2018-Feb-17 11:00N 42°37' W 070°39'0 0.0
2018-Feb-17 10:30N 42°37' W 070°39'0 0.0
2018-Feb-17 10:00N 42°37' W 070°39'0 0.0
2018-Feb-17 09:31N 42°37' W 070°39'0 0.0
2018-Feb-17 09:01N 42°37' W 070°39'0 0.0
2018-Feb-17 08:31N 42°37' W 070°39'0 0.0
2018-Feb-17 08:00N 42°37' W 070°39'0 0.0
2018-Feb-17 07:30N 42°37' W 070°39'0 0.0
2018-Feb-17 07:00N 42°37' W 070°39'0 0.0
2018-Feb-17 06:30N 42°37' W 070°39'0 0.0
2018-Feb-17 06:01N 42°37' W 070°39'0 0.0
2018-Feb-17 05:30N 42°37' W 070°39'0 0.0
2018-Feb-17 05:00N 42°37' W 070°39'0 0.0
2018-Feb-17 04:31N 42°37' W 070°39'0 0.0
2018-Feb-17 04:00N 42°37' W 070°39'0 0.0
2018-Feb-17 03:30N 42°37' W 070°39'0 0.0
2018-Feb-17 03:01N 42°37' W 070°39'0 0.0
2018-Feb-17 02:31N 42°37' W 070°39'0 0.0
2018-Feb-17 02:00N 42°37' W 070°39'0 0.0
2018-Feb-17 01:30N 42°37' W 070°39'0 0.0
2018-Feb-17 01:01N 42°37' W 070°39'0 0.0
2018-Feb-17 00:30N 42°37' W 070°39'0 0.0
2018-Feb-17 00:00N 42°37' W 070°39'0 0.0
2018-Feb-16 23:30N 42°37' W 070°39'0 0.0
2018-Feb-16 23:01N 42°37' W 070°39'0 0.0
2018-Feb-16 22:30N 42°37' W 070°39'0 0.0
2018-Feb-16 22:00N 42°37' W 070°39'0 0.0
2018-Feb-16 21:30N 42°37' W 070°39'0 0.0
2018-Feb-16 21:00N 42°37' W 070°39'0 0.0
2018-Feb-16 20:30N 42°37' W 070°39'0 0.0
2018-Feb-16 20:00N 42°37' W 070°39'0 0.0
2018-Feb-16 19:30N 42°37' W 070°39'0 0.0
2018-Feb-16 19:00N 42°37' W 070°39'0 0.0
2018-Feb-16 18:30N 42°37' W 070°39'0 0.0
2018-Feb-16 18:00N 42°37' W 070°39'0 0.0
2018-Feb-16 17:30N 42°37' W 070°39'0 0.0
2018-Feb-16 17:00N 42°37' W 070°39'0 0.0
2018-Feb-16 16:30N 42°37' W 070°39'0 0.0
2018-Feb-16 16:01N 42°37' W 070°39'0 0.0
2018-Feb-16 15:30N 42°37' W 070°39'0 0.0
2018-Feb-16 15:00N 42°37' W 070°39'0 0.0
2018-Feb-16 14:30N 42°37' W 070°39'0 0.0
2018-Feb-16 14:00N 42°37' W 070°39'0 0.0
2018-Feb-16 13:30N 42°37' W 070°39'0 0.0
2018-Feb-16 13:00N 42°37' W 070°39'0 0.0
2018-Feb-16 12:30N 42°37' W 070°39'0 0.0
2018-Feb-16 12:00N 42°37' W 070°39'0 0.0
2018-Feb-16 11:30N 42°37' W 070°39'0 0.0
2018-Feb-16 11:01N 42°37' W 070°39'0 0.0
2018-Feb-16 10:30N 42°37' W 070°39'0 0.0
2018-Feb-16 10:00N 42°37' W 070°39'0 0.0
2018-Feb-16 09:30N 42°37' W 070°39'0 0.0
2018-Feb-16 09:00N 42°37' W 070°39'0 0.0
2018-Feb-16 08:31N 42°37' W 070°39'0 0.0
2018-Feb-16 08:00N 42°37' W 070°39'0 0.0
2018-Feb-16 07:31N 42°37' W 070°39'0 0.0
2018-Feb-16 07:00N 42°37' W 070°39'0 0.0
2018-Feb-16 06:30N 42°37' W 070°39'0 0.0
2018-Feb-16 06:01N 42°37' W 070°39'0 0.0
2018-Feb-16 05:30N 42°37' W 070°39'0 0.0
2018-Feb-16 05:00N 42°37' W 070°39'0 0.0
2018-Feb-16 04:26N 42°37' W 070°39'0 0.0
2018-Feb-16 04:01N 42°37' W 070°39'0 0.0
2018-Feb-16 03:31N 42°37' W 070°39'0 0.0
2018-Feb-16 03:01N 42°37' W 070°39'0 0.0
2018-Feb-16 02:30N 42°37' W 070°39'0 0.0
2018-Feb-16 02:00N 42°37' W 070°39'0 0.0
2018-Feb-16 01:30N 42°37' W 070°39'0 0.0
2018-Feb-16 01:00N 42°37' W 070°39'0 0.0
2018-Feb-16 00:30N 42°37' W 070°39'0 0.0
2018-Feb-16 00:00N 42°37' W 070°39'0 0.0
2018-Feb-15 23:31N 42°37' W 070°39'0 0.0
2018-Feb-15 23:01N 42°37' W 070°39'0 0.0
2018-Feb-15 22:30N 42°37' W 070°39'0 0.0
2018-Feb-15 22:00N 42°37' W 070°39'0 0.0
2018-Feb-15 21:30N 42°37' W 070°39'0 0.0
2018-Feb-15 21:01N 42°37' W 070°39'0 0.0
2018-Feb-15 20:30N 42°37' W 070°39'0 0.0
2018-Feb-15 20:00N 42°37' W 070°39'0 0.0
2018-Feb-15 19:30N 42°37' W 070°39'0 0.0
2018-Feb-15 19:00N 42°37' W 070°39'0 0.0
2018-Feb-15 18:31N 42°37' W 070°39'0 0.0
2018-Feb-15 18:01N 42°37' W 070°39'0 0.0
2018-Feb-15 17:31N 42°37' W 070°39'0 0.0
2018-Feb-15 17:00N 42°37' W 070°39'0 0.0
2018-Feb-15 16:31N 42°37' W 070°39'0 0.0
2018-Feb-15 16:00N 42°37' W 070°39'0 0.0
2018-Feb-15 15:30N 42°37' W 070°39'0 0.0
2018-Feb-15 14:59N 42°37' W 070°39'0 0.0
2018-Feb-15 14:31N 42°37' W 070°39'0 0.0
2018-Feb-15 14:00N 42°37' W 070°39'0 0.0
2018-Feb-15 13:30N 42°37' W 070°39'0 0.0
2018-Feb-15 13:00N 42°37' W 070°39'0 0.0
2018-Feb-15 12:30N 42°37' W 070°39'0 0.0
2018-Feb-15 12:01N 42°37' W 070°39'0 0.0
2018-Feb-15 11:31N 42°37' W 070°39'0 0.0
2018-Feb-15 11:00N 42°37' W 070°39'0 0.0
2018-Feb-15 10:30N 42°37' W 070°39'0 0.0
2018-Feb-15 10:01N 42°37' W 070°39'0 0.0
2018-Feb-15 09:30N 42°37' W 070°39'0 0.0
2018-Feb-15 09:00N 42°37' W 070°39'0 0.0
2018-Feb-15 08:30N 42°37' W 070°39'0 0.0
2018-Feb-15 08:00N 42°37' W 070°39'0 0.0
2018-Feb-15 07:29N 42°37' W 070°39'0 0.0
2018-Feb-15 07:00N 42°37' W 070°39'0 0.0
2018-Feb-15 06:30N 42°37' W 070°39'0 0.0
2018-Feb-15 06:00N 42°37' W 070°39'0 0.0
2018-Feb-15 05:30N 42°37' W 070°39'0 0.0
2018-Feb-15 05:00N 42°37' W 070°39'0 0.0
2018-Feb-15 04:30N 42°37' W 070°39'0 0.0
2018-Feb-15 03:59N 42°37' W 070°39'0 0.0
2018-Feb-15 03:31N 42°37' W 070°39'0 0.0
2018-Feb-15 02:59N 42°37' W 070°39'0 0.0
2018-Feb-15 02:30N 42°37' W 070°39'0 0.0
2018-Feb-15 02:00N 42°37' W 070°39'0 0.0
2018-Feb-15 01:30N 42°37' W 070°39'0 0.0
2018-Feb-15 01:00N 42°37' W 070°39'0 1.0
2018-Feb-15 00:30N 42°37' W 070°40'0 0.0
2018-Feb-15 00:00N 42°37' W 070°40'0 0.0
2018-Feb-14 23:30N 42°37' W 070°40'0 0.0
2018-Feb-14 23:00N 42°37' W 070°40'0 0.0
2018-Feb-14 22:30N 42°37' W 070°40'0 0.0
2018-Feb-14 22:00N 42°37' W 070°40'0 0.0
2018-Feb-14 21:31N 42°37' W 070°40'0 0.0
2018-Feb-14 21:00N 42°37' W 070°40'0 0.0
2018-Feb-14 20:30N 42°37' W 070°40'0 0.0
2018-Feb-14 20:00N 42°37' W 070°40'0 0.0
2018-Feb-14 19:31N 42°37' W 070°40'0 0.9
2018-Feb-14 19:00N 42°37' W 070°39'0 0.0
2018-Feb-14 18:31N 42°37' W 070°39'0 0.0
2018-Feb-14 18:00N 42°37' W 070°39'0 0.0
2018-Feb-14 17:30N 42°37' W 070°39'0 0.0
2018-Feb-14 17:01N 42°37' W 070°39'0 0.0
2018-Feb-14 16:30N 42°37' W 070°39'0 0.0
2018-Feb-14 16:01N 42°37' W 070°39'0 0.0
2018-Feb-14 15:29N 42°37' W 070°39'0 0.0
2018-Feb-14 15:00N 42°37' W 070°39'0 0.0
2018-Feb-14 14:30N 42°37' W 070°39'0 0.0
2018-Feb-14 14:00N 42°37' W 070°39'0 0.0
2018-Feb-14 13:28N 42°37' W 070°39'0 0.0
2018-Feb-14 13:00N 42°37' W 070°39'0 0.4
2018-Feb-14 12:30N 42°37' W 070°39'2 5.0
2018-Feb-14 12:00N 42°34' W 070°40'3 6.3
2018-Feb-14 11:30N 42°34' W 070°35'4 7.8
2018-Feb-14 11:00N 42°33' W 070°31'4 7.9
2018-Feb-14 10:30N 42°31' W 070°26'4 7.7
2018-Feb-14 10:00N 42°29' W 070°21'4 7.7
2018-Feb-14 09:30N 42°28' W 070°16'  
Track history (hours):
 
Tides and Currents Weather Stations Pressure Air Temp Water Temp Dewpoint Dewpoint Depression Visibility Wind Speed Wind Dir Waves Ship Positions

Tyler

Owner: F/V Tyler Inc, Gloucester, MA. More information available from US FCC via Universal Licensing System and Coast Guard Vessel Documentation Center.

Last reported at 2018-Feb-23 13:00 UTC. Time now 2018-Feb-23 13:02 UTC.
Position N 42°37' W 070°40'.

Length 20 m; draft 14 m.

Type: Ship. MMSI: 367602610.

Date/timePositionNaut miles runAvg speedWind from/ knotsBaromVisibWave heightAir tempDewpointWater temp
2018-Feb-23 13:00N 42°37' W 070°40'0 0.0
2018-Feb-23 12:30N 42°37' W 070°40'0 0.0
2018-Feb-23 12:00N 42°37' W 070°40'0 0.0
2018-Feb-23 11:30N 42°37' W 070°40'0 0.0
2018-Feb-23 11:00N 42°37' W 070°40'0 0.0
2018-Feb-23 10:30N 42°37' W 070°40'0 0.0
2018-Feb-23 10:00N 42°37' W 070°40'0 0.0
2018-Feb-23 09:30N 42°37' W 070°40'0 0.0
2018-Feb-23 09:00N 42°37' W 070°40'0 0.0
2018-Feb-23 08:30N 42°37' W 070°40'0 0.0
2018-Feb-23 08:00N 42°37' W 070°40'0 0.0
2018-Feb-23 07:30N 42°37' W 070°40'0 0.9
2018-Feb-23 07:00N 42°37' W 070°39'0 0.0
2018-Feb-23 06:30N 42°37' W 070°39'0 0.0
2018-Feb-23 06:00N 42°37' W 070°39'0 0.0
2018-Feb-23 05:30N 42°37' W 070°39'0 0.0
2018-Feb-23 05:01N 42°37' W 070°39'0 0.0
2018-Feb-23 04:30N 42°37' W 070°39'0 0.0
2018-Feb-23 04:00N 42°37' W 070°39'0 0.0
2018-Feb-23 03:30N 42°37' W 070°39'0 0.0
2018-Feb-23 03:01N 42°37' W 070°39'0 0.0
2018-Feb-23 02:29N 42°37' W 070°39'0 0.0
2018-Feb-23 01:59N 42°37' W 070°39'0 0.0
2018-Feb-23 01:30N 42°37' W 070°39'0 0.0
2018-Feb-23 01:00N 42°37' W 070°39'0 0.0
2018-Feb-23 00:30N 42°37' W 070°39'0 0.0
2018-Feb-23 00:00N 42°37' W 070°39'0 0.0
2018-Feb-22 23:30N 42°37' W 070°39'0 0.0
2018-Feb-22 23:00N 42°37' W 070°39'0 0.0
2018-Feb-22 22:30N 42°37' W 070°39'0 0.0
2018-Feb-22 22:00N 42°37' W 070°39'0 0.0
2018-Feb-22 21:30N 42°37' W 070°39'0 0.0
2018-Feb-22 21:00N 42°37' W 070°39'0 0.0
2018-Feb-22 20:30N 42°37' W 070°39'0 0.0
2018-Feb-22 20:01N 42°37' W 070°39'0 0.0
2018-Feb-22 19:30N 42°37' W 070°39'0 0.0
2018-Feb-22 19:00N 42°37' W 070°39'0 0.0
2018-Feb-22 18:30N 42°37' W 070°39'0 0.0
2018-Feb-22 18:00N 42°37' W 070°39'0 0.0
2018-Feb-22 17:30N 42°37' W 070°39'0 0.0
2018-Feb-22 16:59N 42°37' W 070°39'0 0.0
2018-Feb-22 16:30N 42°37' W 070°39'0 0.0
2018-Feb-22 15:59N 42°37' W 070°39'0 0.0
2018-Feb-22 15:29N 42°37' W 070°39'0 0.0
2018-Feb-22 15:00N 42°37' W 070°39'0 0.0
2018-Feb-22 14:30N 42°37' W 070°39'0 0.0
2018-Feb-22 14:00N 42°37' W 070°39'0 0.0
2018-Feb-22 13:30N 42°37' W 070°39'0 0.2
2018-Feb-22 13:00N 42°37' W 070°39'1 2.1
2018-Feb-22 12:31N 42°36' W 070°40'2 4.5
2018-Feb-22 12:01N 42°34' W 070°39'4 8.4
2018-Feb-22 11:30N 42°35' W 070°33'4 8.0
2018-Feb-22 11:00N 42°35' W 070°28'4 8.0
2018-Feb-22 10:30N 42°36' W 070°22'4 7.8
2018-Feb-22 10:00N 42°36' W 070°17'  
2018-Feb-19 05:42N 42°24' W 070°14'2 8.6
2018-Feb-19 05:28N 42°25' W 070°16'4 8.9
2018-Feb-19 05:01N 42°27' W 070°21'4 8.9
2018-Feb-19 04:31N 42°29' W 070°26'4 8.5
2018-Feb-19 04:00N 42°31' W 070°32'4 8.4
2018-Feb-19 03:30N 42°33' W 070°37'4 7.6
2018-Feb-19 03:00N 42°35' W 070°41'2 3.7
2018-Feb-19 02:30N 42°37' W 070°39'0 0.0
2018-Feb-19 02:01N 42°37' W 070°39'0 0.0
2018-Feb-19 01:30N 42°37' W 070°39'0 0.0
2018-Feb-19 01:00N 42°37' W 070°39'0 0.0
2018-Feb-19 00:30N 42°37' W 070°39'0 0.0
2018-Feb-19 00:00N 42°37' W 070°39'0 0.0
2018-Feb-18 23:31N 42°37' W 070°39'0 0.0
2018-Feb-18 23:00N 42°37' W 070°39'0 0.0
2018-Feb-18 22:31N 42°37' W 070°39'0 0.0
2018-Feb-18 22:00N 42°37' W 070°39'0 0.0
2018-Feb-18 21:30N 42°37' W 070°39'0 0.0
2018-Feb-18 21:00N 42°37' W 070°39'0 0.0
2018-Feb-18 20:30N 42°37' W 070°39'0 0.0
2018-Feb-18 20:01N 42°37' W 070°39'0 0.0
2018-Feb-18 19:31N 42°37' W 070°39'0 0.9
2018-Feb-18 19:00N 42°37' W 070°40'0 0.0
2018-Feb-18 18:30N 42°37' W 070°40'0 0.0
2018-Feb-18 18:00N 42°37' W 070°40'0 0.5
2018-Feb-18 17:30N 42°36' W 070°40'1 1.3
2018-Feb-18 17:00N 42°37' W 070°39'0 0.0
2018-Feb-18 16:30N 42°37' W 070°39'0 0.0
2018-Feb-18 16:00N 42°37' W 070°39'0 0.0
2018-Feb-18 15:30N 42°37' W 070°39'0 0.0
2018-Feb-18 15:00N 42°37' W 070°39'0 0.0
2018-Feb-18 14:31N 42°37' W 070°39'0 0.0
2018-Feb-18 14:01N 42°37' W 070°39'0 0.0
2018-Feb-18 13:31N 42°37' W 070°39'0 0.0
2018-Feb-18 13:00N 42°37' W 070°39'0 0.0
2018-Feb-18 12:31N 42°37' W 070°39'0 0.0
2018-Feb-18 12:01N 42°37' W 070°39'0 0.0
2018-Feb-18 11:31N 42°37' W 070°39'0 0.0
2018-Feb-18 11:00N 42°37' W 070°39'0 0.0
2018-Feb-18 10:31N 42°37' W 070°39'0 0.0
2018-Feb-18 10:01N 42°37' W 070°39'0 0.0
2018-Feb-18 09:30N 42°37' W 070°39'0 0.0
2018-Feb-18 09:00N 42°37' W 070°39'0 0.0
2018-Feb-18 08:30N 42°37' W 070°39'0 0.0
2018-Feb-18 08:01N 42°37' W 070°39'0 0.0
2018-Feb-18 07:30N 42°37' W 070°39'0 0.0
2018-Feb-18 07:00N 42°37' W 070°39'0 0.0
2018-Feb-18 06:31N 42°37' W 070°39'0 0.0
2018-Feb-18 06:00N 42°37' W 070°39'0 0.0
2018-Feb-18 05:30N 42°37' W 070°39'0 0.0
2018-Feb-18 05:00N 42°37' W 070°39'0 0.0
2018-Feb-18 04:30N 42°37' W 070°39'0 0.0
2018-Feb-18 04:00N 42°37' W 070°39'0 0.0
2018-Feb-18 03:30N 42°37' W 070°39'0 0.0
2018-Feb-18 03:00N 42°37' W 070°39'0 0.0
2018-Feb-18 02:30N 42°37' W 070°39'0 0.0
2018-Feb-18 02:01N 42°37' W 070°39'0 0.0
2018-Feb-18 01:31N 42°37' W 070°39'0 0.0
2018-Feb-18 01:00N 42°37' W 070°39'0 0.0
2018-Feb-18 00:30N 42°37' W 070°39'0 0.0
2018-Feb-18 00:01N 42°37' W 070°39'0 0.0
2018-Feb-17 23:30N 42°37' W 070°39'0 0.0
2018-Feb-17 23:01N 42°37' W 070°39'0 0.0
2018-Feb-17 22:30N 42°37' W 070°39'0 0.0
2018-Feb-17 22:00N 42°37' W 070°39'0 0.0
2018-Feb-17 21:30N 42°37' W 070°39'0 0.0
2018-Feb-17 21:00N 42°37' W 070°39'0 0.0
2018-Feb-17 20:31N 42°37' W 070°39'0 0.0
2018-Feb-17 20:00N 42°37' W 070°39'0 0.0
2018-Feb-17 19:31N 42°37' W 070°39'0 0.0
2018-Feb-17 19:00N 42°37' W 070°39'0 0.0
2018-Feb-17 18:30N 42°37' W 070°39'0 0.0
2018-Feb-17 18:00N 42°37' W 070°39'0 0.0
2018-Feb-17 17:31N 42°37' W 070°39'0 0.0
2018-Feb-17 17:00N 42°37' W 070°39'0 0.0
2018-Feb-17 16:30N 42°37' W 070°39'0 0.0
2018-Feb-17 16:00N 42°37' W 070°39'0 0.0
2018-Feb-17 15:30N 42°37' W 070°39'0 0.0
2018-Feb-17 15:00N 42°37' W 070°39'0 0.0
2018-Feb-17 14:31N 42°37' W 070°39'0 0.0
2018-Feb-17 14:00N 42°37' W 070°39'0 0.0
2018-Feb-17 13:30N 42°37' W 070°39'0 0.0
2018-Feb-17 13:01N 42°37' W 070°39'0 0.0
2018-Feb-17 12:31N 42°37' W 070°39'0 0.0
2018-Feb-17 12:01N 42°37' W 070°39'0 0.0
2018-Feb-17 11:30N 42°37' W 070°39'0 0.0
2018-Feb-17 11:00N 42°37' W 070°39'0 0.0
2018-Feb-17 10:30N 42°37' W 070°39'0 0.0
2018-Feb-17 10:00N 42°37' W 070°39'0 0.0
2018-Feb-17 09:31N 42°37' W 070°39'0 0.0
2018-Feb-17 09:01N 42°37' W 070°39'0 0.0
2018-Feb-17 08:31N 42°37' W 070°39'0 0.0
2018-Feb-17 08:00N 42°37' W 070°39'0 0.0
2018-Feb-17 07:30N 42°37' W 070°39'0 0.0
2018-Feb-17 07:00N 42°37' W 070°39'0 0.0
2018-Feb-17 06:30N 42°37' W 070°39'0 0.0
2018-Feb-17 06:01N 42°37' W 070°39'0 0.0
2018-Feb-17 05:30N 42°37' W 070°39'0 0.0
2018-Feb-17 05:00N 42°37' W 070°39'0 0.0
2018-Feb-17 04:31N 42°37' W 070°39'0 0.0
2018-Feb-17 04:00N 42°37' W 070°39'0 0.0
2018-Feb-17 03:30N 42°37' W 070°39'0 0.0
2018-Feb-17 03:01N 42°37' W 070°39'0 0.0
2018-Feb-17 02:31N 42°37' W 070°39'0 0.0
2018-Feb-17 02:00N 42°37' W 070°39'0 0.0
2018-Feb-17 01:30N 42°37' W 070°39'0 0.0
2018-Feb-17 01:01N 42°37' W 070°39'0 0.0
2018-Feb-17 00:30N 42°37' W 070°39'0 0.0
2018-Feb-17 00:00N 42°37' W 070°39'0 0.0
2018-Feb-16 23:30N 42°37' W 070°39'0 0.0
2018-Feb-16 23:01N 42°37' W 070°39'0 0.0
2018-Feb-16 22:30N 42°37' W 070°39'0 0.0
2018-Feb-16 22:00N 42°37' W 070°39'0 0.0
2018-Feb-16 21:30N 42°37' W 070°39'0 0.0
2018-Feb-16 21:00N 42°37' W 070°39'0 0.0
2018-Feb-16 20:30N 42°37' W 070°39'0 0.0
2018-Feb-16 20:00N 42°37' W 070°39'0 0.0
2018-Feb-16 19:30N 42°37' W 070°39'0 0.0
2018-Feb-16 19:00N 42°37' W 070°39'0 0.0
2018-Feb-16 18:30N 42°37' W 070°39'0 0.0
2018-Feb-16 18:00N 42°37' W 070°39'0 0.0
2018-Feb-16 17:30N 42°37' W 070°39'0 0.0
2018-Feb-16 17:00N 42°37' W 070°39'0 0.0
2018-Feb-16 16:30N 42°37' W 070°39'0 0.0
2018-Feb-16 16:01N 42°37' W 070°39'0 0.0
2018-Feb-16 15:30N 42°37' W 070°39'0 0.0
2018-Feb-16 15:00N 42°37' W 070°39'0 0.0
2018-Feb-16 14:30N 42°37' W 070°39'0 0.0
2018-Feb-16 14:00N 42°37' W 070°39'0 0.0
2018-Feb-16 13:30N 42°37' W 070°39'0 0.0
2018-Feb-16 13:00N 42°37' W 070°39'0 0.0
2018-Feb-16 12:30N 42°37' W 070°39'0 0.0
2018-Feb-16 12:00N 42°37' W 070°39'0 0.0
2018-Feb-16 11:30N 42°37' W 070°39'0 0.0
2018-Feb-16 11:01N 42°37' W 070°39'0 0.0
2018-Feb-16 10:30N 42°37' W 070°39'0 0.0
2018-Feb-16 10:00N 42°37' W 070°39'0 0.0
2018-Feb-16 09:30N 42°37' W 070°39'0 0.0
2018-Feb-16 09:00N 42°37' W 070°39'0 0.0
2018-Feb-16 08:31N 42°37' W 070°39'0 0.0
2018-Feb-16 08:00N 42°37' W 070°39'0 0.0
2018-Feb-16 07:31N 42°37' W 070°39'0 0.0
2018-Feb-16 07:00N 42°37' W 070°39'0 0.0
2018-Feb-16 06:30N 42°37' W 070°39'0 0.0
2018-Feb-16 06:01N 42°37' W 070°39'0 0.0
2018-Feb-16 05:30N 42°37' W 070°39'0 0.0
2018-Feb-16 05:00N 42°37' W 070°39'0 0.0
2018-Feb-16 04:26N 42°37' W 070°39'0 0.0
2018-Feb-16 04:01N 42°37' W 070°39'0 0.0
2018-Feb-16 03:31N 42°37' W 070°39'0 0.0
2018-Feb-16 03:01N 42°37' W 070°39'0 0.0
2018-Feb-16 02:30N 42°37' W 070°39'0 0.0
2018-Feb-16 02:00N 42°37' W 070°39'0 0.0
2018-Feb-16 01:30N 42°37' W 070°39'0 0.0
2018-Feb-16 01:00N 42°37' W 070°39'0 0.0
2018-Feb-16 00:30N 42°37' W 070°39'0 0.0
2018-Feb-16 00:00N 42°37' W 070°39'0 0.0
2018-Feb-15 23:31N 42°37' W 070°39'0 0.0
2018-Feb-15 23:01N 42°37' W 070°39'0 0.0
2018-Feb-15 22:30N 42°37' W 070°39'0 0.0
2018-Feb-15 22:00N 42°37' W 070°39'0 0.0
2018-Feb-15 21:30N 42°37' W 070°39'0 0.0
2018-Feb-15 21:01N 42°37' W 070°39'0 0.0
2018-Feb-15 20:30N 42°37' W 070°39'0 0.0
2018-Feb-15 20:00N 42°37' W 070°39'0 0.0
2018-Feb-15 19:30N 42°37' W 070°39'0 0.0
2018-Feb-15 19:00N 42°37' W 070°39'0 0.0
2018-Feb-15 18:31N 42°37' W 070°39'0 0.0
2018-Feb-15 18:01N 42°37' W 070°39'0 0.0
2018-Feb-15 17:31N 42°37' W 070°39'0 0.0
2018-Feb-15 17:00N 42°37' W 070°39'0 0.0
2018-Feb-15 16:31N 42°37' W 070°39'0 0.0
2018-Feb-15 16:00N 42°37' W 070°39'0 0.0
2018-Feb-15 15:30N 42°37' W 070°39'0 0.0
2018-Feb-15 14:59N 42°37' W 070°39'0 0.0
2018-Feb-15 14:31N 42°37' W 070°39'0 0.0
2018-Feb-15 14:00N 42°37' W 070°39'0 0.0
2018-Feb-15 13:30N 42°37' W 070°39'0 0.0
2018-Feb-15 13:00N 42°37' W 070°39'0 0.0
2018-Feb-15 12:30N 42°37' W 070°39'0 0.0
2018-Feb-15 12:01N 42°37' W 070°39'0 0.0
2018-Feb-15 11:31N 42°37' W 070°39'0 0.0
2018-Feb-15 11:00N 42°37' W 070°39'0 0.0
2018-Feb-15 10:30N 42°37' W 070°39'0 0.0
2018-Feb-15 10:01N 42°37' W 070°39'0 0.0
2018-Feb-15 09:30N 42°37' W 070°39'0 0.0
2018-Feb-15 09:00N 42°37' W 070°39'0 0.0
2018-Feb-15 08:30N 42°37' W 070°39'0 0.0
2018-Feb-15 08:00N 42°37' W 070°39'0 0.0
2018-Feb-15 07:29N 42°37' W 070°39'0 0.0
2018-Feb-15 07:00N 42°37' W 070°39'0 0.0
2018-Feb-15 06:30N 42°37' W 070°39'0 0.0
2018-Feb-15 06:00N 42°37' W 070°39'0 0.0
2018-Feb-15 05:30N 42°37' W 070°39'0 0.0
2018-Feb-15 05:00N 42°37' W 070°39'0 0.0
2018-Feb-15 04:30N 42°37' W 070°39'0 0.0
2018-Feb-15 03:59N 42°37' W 070°39'0 0.0
2018-Feb-15 03:31N 42°37' W 070°39'0 0.0
2018-Feb-15 02:59N 42°37' W 070°39'0 0.0
2018-Feb-15 02:30N 42°37' W 070°39'0 0.0
2018-Feb-15 02:00N 42°37' W 070°39'0 0.0
2018-Feb-15 01:30N 42°37' W 070°39'0 0.0
2018-Feb-15 01:00N 42°37' W 070°39'0 1.0
2018-Feb-15 00:30N 42°37' W 070°40'0 0.0
2018-Feb-15 00:00N 42°37' W 070°40'0 0.0
2018-Feb-14 23:30N 42°37' W 070°40'0 0.0
2018-Feb-14 23:00N 42°37' W 070°40'0 0.0
2018-Feb-14 22:30N 42°37' W 070°40'0 0.0
2018-Feb-14 22:00N 42°37' W 070°40'0 0.0
2018-Feb-14 21:31N 42°37' W 070°40'0 0.0
2018-Feb-14 21:00N 42°37' W 070°40'0 0.0
2018-Feb-14 20:30N 42°37' W 070°40'0 0.0
2018-Feb-14 20:00N 42°37' W 070°40'0 0.0
2018-Feb-14 19:31N 42°37' W 070°40'0 0.9
2018-Feb-14 19:00N 42°37' W 070°39'0 0.0
2018-Feb-14 18:31N 42°37' W 070°39'0 0.0
2018-Feb-14 18:00N 42°37' W 070°39'0 0.0
2018-Feb-14 17:30N 42°37' W 070°39'0 0.0
2018-Feb-14 17:01N 42°37' W 070°39'0 0.0
2018-Feb-14 16:30N 42°37' W 070°39'0 0.0
2018-Feb-14 16:01N 42°37' W 070°39'0 0.0
2018-Feb-14 15:29N 42°37' W 070°39'0 0.0
2018-Feb-14 15:00N 42°37' W 070°39'0 0.0
2018-Feb-14 14:30N 42°37' W 070°39'0 0.0
2018-Feb-14 14:00N 42°37' W 070°39'0 0.0
2018-Feb-14 13:28N 42°37' W 070°39'0 0.0
2018-Feb-14 13:00N 42°37' W 070°39'0 0.4
2018-Feb-14 12:30N 42°37' W 070°39'2 5.0
2018-Feb-14 12:00N 42°34' W 070°40'3 6.3
2018-Feb-14 11:30N 42°34' W 070°35'4 7.8
2018-Feb-14 11:00N 42°33' W 070°31'4 7.9
2018-Feb-14 10:30N 42°31' W 070°26'4 7.7
2018-Feb-14 10:00N 42°29' W 070°21'4 7.7
2018-Feb-14 09:30N 42°28' W 070°16'  

Dump ship's entire track history